CEB987 RPMD-RPVB
Flight info
| Callsign | CEB987 |
|---|---|
| Flight time | N/A |
| Altitude | 34000 |
| Route | ANKIN3R ANKIN DCT NANAS NANAS3P |
| Aircraft | A20N/M-SDE2E3FGHIRWXY/LB1 |
Departure
| Time | 2026-04-28 12:58 |
|---|---|
| Airport | Francisco Bangoy International Airport (RPMD) |
Arrival
| Time | N/A |
|---|---|
| Airport | Bacolod-Silay International Airport (RPVB) |
| Time | Latitude | Longitude | Altitude | Speed | Heading |
|---|---|---|---|---|---|
| 2026-04-28 12:37 | 7.13036 | 125.64646 | 101 ft | 0 kts | 320° |
| 2026-04-28 12:45 | 7.13034 | 125.64648 | 101 ft | 0 kts | 320° |
| 2026-04-28 12:46 | 7.13026 | 125.64655 | 100 ft | 2 kts | 319° |
| 2026-04-28 12:46 | 7.13013 | 125.64666 | 101 ft | 2 kts | 318° |
| 2026-04-28 12:46 | 7.13001 | 125.64678 | 101 ft | 2 kts | 316° |
| 2026-04-28 12:46 | 7.12989 | 125.64690 | 100 ft | 2 kts | 311° |
| 2026-04-28 12:47 | 7.12979 | 125.64702 | 101 ft | 2 kts | 299° |
| 2026-04-28 12:47 | 7.12975 | 125.64718 | 101 ft | 2 kts | 246° |
| 2026-04-28 12:47 | 7.12980 | 125.64727 | 100 ft | 1 kts | 229° |
| 2026-04-28 12:49 | 7.12969 | 125.64714 | 99 ft | 6 kts | 229° |
| 2026-04-28 12:49 | 7.12926 | 125.64665 | 100 ft | 11 kts | 229° |
| 2026-04-28 12:50 | 7.12923 | 125.64661 | 101 ft | 0 kts | 229° |
| 2026-04-28 12:51 | 7.12912 | 125.64647 | 101 ft | 6 kts | 229° |
| 2026-04-28 12:51 | 7.12868 | 125.64597 | 101 ft | 13 kts | 229° |
| 2026-04-28 12:51 | 7.12797 | 125.64515 | 101 ft | 18 kts | 229° |
| 2026-04-28 12:52 | 7.12772 | 125.64485 | 101 ft | 17 kts | 229° |
| 2026-04-28 12:52 | 7.12729 | 125.64438 | 101 ft | 1 kts | 214° |
| 2026-04-28 12:52 | 7.12684 | 125.64462 | 101 ft | 5 kts | 155° |
| 2026-04-28 12:53 | 7.12639 | 125.64496 | 101 ft | 10 kts | 140° |
| 2026-04-28 12:53 | 7.12628 | 125.64505 | 101 ft | 0 kts | 140° |
| 2026-04-28 12:53 | 7.12611 | 125.64519 | 100 ft | 7 kts | 140° |
| 2026-04-28 12:54 | 7.12555 | 125.64553 | 100 ft | 9 kts | 181° |
| 2026-04-28 12:54 | 7.12383 | 125.64378 | 100 ft | 21 kts | 229° |
| 2026-04-28 12:54 | 7.12276 | 125.64255 | 101 ft | 26 kts | 229° |
| 2026-04-28 12:55 | 7.12150 | 125.64109 | 102 ft | 29 kts | 229° |
| 2026-04-28 12:55 | 7.12010 | 125.63944 | 102 ft | 33 kts | 229° |
| 2026-04-28 12:55 | 7.11854 | 125.63765 | 101 ft | 36 kts | 229° |
| 2026-04-28 12:55 | 7.11755 | 125.63625 | 99 ft | 16 kts | 275° |
| 2026-04-28 12:56 | 7.11718 | 125.63536 | 100 ft | 7 kts | 190° |
| 2026-04-28 12:56 | 7.11686 | 125.63559 | 100 ft | 4 kts | 90° |
| 2026-04-28 12:56 | 7.11710 | 125.63598 | 100 ft | 10 kts | 45° |
| 2026-04-28 12:56 | 7.11733 | 125.63625 | 98 ft | 0 kts | 51° |
| 2026-04-28 12:57 | 7.11772 | 125.63668 | 100 ft | 39 kts | 49° |
| 2026-04-28 12:57 | 7.11860 | 125.63769 | 101 ft | 74 kts | 49° |
| 2026-04-28 12:58 | 7.16272 | 125.66150 | 3301 ft | 191 kts | 353° |
| 2026-04-28 12:59 | 7.17664 | 125.65964 | 4047 ft | 212 kts | 353° |
| 2026-04-28 12:59 | 7.19211 | 125.65756 | 4845 ft | 235 kts | 354° |
| 2026-04-28 12:59 | 7.20878 | 125.65538 | 5825 ft | 248 kts | 354° |
| 2026-04-28 12:59 | 7.22685 | 125.65309 | 6653 ft | 271 kts | 354° |
| 2026-04-28 13:00 | 7.24563 | 125.65073 | 7783 ft | 278 kts | 354° |
| 2026-04-28 13:00 | 7.26508 | 125.64828 | 8953 ft | 285 kts | 354° |
| 2026-04-28 13:00 | 7.27175 | 125.64737 | 9350 ft | 288 kts | 352° |
| 2026-04-28 13:01 | 7.36921 | 125.56295 | 14139 ft | 367 kts | 317° |
| 2026-04-28 13:02 | 7.38752 | 125.54473 | 15035 ft | 372 kts | 317° |
| 2026-04-28 13:02 | 7.40619 | 125.52637 | 15921 ft | 378 kts | 317° |
| 2026-04-28 13:02 | 7.42497 | 125.50797 | 16785 ft | 383 kts | 317° |
| 2026-04-28 13:02 | 7.44360 | 125.48973 | 17600 ft | 388 kts | 317° |
| 2026-04-28 13:03 | 7.46313 | 125.47060 | 18396 ft | 394 kts | 317° |
| 2026-04-28 13:03 | 7.48287 | 125.45126 | 19123 ft | 398 kts | 317° |
| 2026-04-28 13:03 | 7.50287 | 125.43163 | 19833 ft | 403 kts | 317° |
| 2026-04-28 13:03 | 7.52313 | 125.41175 | 20531 ft | 408 kts | 317° |
| 2026-04-28 13:04 | 7.54363 | 125.39162 | 21245 ft | 413 kts | 317° |
| 2026-04-28 13:04 | 7.56436 | 125.37126 | 21925 ft | 419 kts | 317° |
| 2026-04-28 13:04 | 7.58534 | 125.35067 | 22653 ft | 422 kts | 317° |
| 2026-04-28 13:04 | 7.60650 | 125.32988 | 23341 ft | 427 kts | 317° |
| 2026-04-28 13:05 | 7.62794 | 125.30882 | 23898 ft | 433 kts | 317° |
| 2026-04-28 13:05 | 7.64955 | 125.28758 | 24481 ft | 436 kts | 317° |
| 2026-04-28 13:05 | 7.67142 | 125.26609 | 25029 ft | 440 kts | 317° |
| 2026-04-28 13:05 | 7.69319 | 125.24469 | 25563 ft | 444 kts | 317° |
| 2026-04-28 13:06 | 7.71544 | 125.22282 | 26094 ft | 448 kts | 317° |
| 2026-04-28 13:06 | 7.73057 | 125.20795 | 26464 ft | 450 kts | 317° |
| 2026-04-28 13:06 | 7.75363 | 125.18528 | 26969 ft | 455 kts | 317° |
| 2026-04-28 13:06 | 7.77642 | 125.16286 | 27485 ft | 458 kts | 317° |
| 2026-04-28 13:07 | 7.79938 | 125.14029 | 27943 ft | 463 kts | 317° |
| 2026-04-28 13:07 | 7.82254 | 125.11750 | 28421 ft | 467 kts | 317° |
| 2026-04-28 13:07 | 7.84559 | 125.09482 | 28892 ft | 470 kts | 317° |
| 2026-04-28 13:07 | 7.86909 | 125.07170 | 29347 ft | 474 kts | 317° |
| 2026-04-28 13:08 | 7.89276 | 125.04840 | 29801 ft | 477 kts | 317° |
| 2026-04-28 13:08 | 7.91670 | 125.02484 | 30221 ft | 481 kts | 317° |
| 2026-04-28 13:08 | 7.94080 | 125.00111 | 30640 ft | 484 kts | 317° |
| 2026-04-28 13:08 | 7.96472 | 124.97755 | 31072 ft | 487 kts | 317° |
| 2026-04-28 13:09 | 7.98836 | 124.95364 | 31581 ft | 488 kts | 315° |
| 2026-04-28 13:09 | 8.01175 | 124.92828 | 32151 ft | 487 kts | 313° |
| 2026-04-28 13:09 | 8.01947 | 124.91975 | 32348 ft | 486 kts | 313° |
| 2026-04-28 13:09 | 8.03456 | 124.90306 | 32721 ft | 486 kts | 313° |
| 2026-04-28 13:10 | 8.14863 | 124.77856 | 33970 ft | 480 kts | 314° |
| 2026-04-28 13:11 | 8.17149 | 124.75377 | 33969 ft | 481 kts | 314° |
| 2026-04-28 13:11 | 8.20172 | 124.72098 | 33961 ft | 481 kts | 314° |
| 2026-04-28 13:12 | 8.20941 | 124.71264 | 33965 ft | 481 kts | 314° |
| 2026-04-28 13:13 | 8.39775 | 124.50810 | 33934 ft | 481 kts | 314° |
| 2026-04-28 13:14 | 8.44344 | 124.45843 | 33928 ft | 482 kts | 314° |
| 2026-04-28 13:14 | 8.48922 | 124.40864 | 33929 ft | 483 kts | 314° |
| 2026-04-28 13:15 | 8.53450 | 124.35937 | 33914 ft | 480 kts | 314° |
| 2026-04-28 13:15 | 8.57255 | 124.31796 | 33911 ft | 480 kts | 314° |
| 2026-04-28 13:16 | 8.57992 | 124.30994 | 33909 ft | 480 kts | 314° |
| 2026-04-28 13:16 | 8.67202 | 124.20964 | 33905 ft | 479 kts | 313° |
| 2026-04-28 13:17 | 8.71739 | 124.16021 | 33903 ft | 479 kts | 313° |
| 2026-04-28 13:17 | 8.76274 | 124.11078 | 33903 ft | 479 kts | 313° |
| 2026-04-28 13:18 | 8.80775 | 124.06169 | 33903 ft | 478 kts | 313° |
| 2026-04-28 13:18 | 8.85301 | 124.01233 | 33900 ft | 478 kts | 313° |
| 2026-04-28 13:19 | 8.89829 | 123.96291 | 33905 ft | 479 kts | 313° |
| 2026-04-28 13:19 | 8.93050 | 123.92776 | 33906 ft | 480 kts | 313° |
| 2026-04-28 13:20 | 8.97142 | 123.88307 | 33904 ft | 479 kts | 313° |
| 2026-04-28 13:20 | 9.01686 | 123.83344 | 33905 ft | 481 kts | 313° |
| 2026-04-28 13:21 | 9.06225 | 123.78383 | 33906 ft | 479 kts | 313° |
| 2026-04-28 13:21 | 9.10764 | 123.73422 | 33903 ft | 479 kts | 313° |
| 2026-04-28 13:22 | 9.15277 | 123.68486 | 33752 ft | 479 kts | 313° |
| 2026-04-28 13:22 | 9.17532 | 123.66018 | 33493 ft | 477 kts | 313° |
| 2026-04-28 13:22 | 9.19791 | 123.63546 | 33240 ft | 477 kts | 313° |
| 2026-04-28 13:22 | 9.22027 | 123.61099 | 32992 ft | 478 kts | 313° |
| 2026-04-28 13:23 | 9.24290 | 123.58622 | 32747 ft | 479 kts | 313° |
| 2026-04-28 13:23 | 9.26556 | 123.56140 | 32496 ft | 479 kts | 313° |
| 2026-04-28 13:23 | 9.28058 | 123.54495 | 32340 ft | 480 kts | 313° |
| 2026-04-28 13:23 | 9.30330 | 123.52007 | 32098 ft | 480 kts | 313° |
| 2026-04-28 13:24 | 9.34863 | 123.47040 | 31623 ft | 481 kts | 313° |
| 2026-04-28 13:24 | 9.37902 | 123.43709 | 31309 ft | 481 kts | 313° |
| 2026-04-28 13:24 | 9.39413 | 123.42053 | 31148 ft | 482 kts | 313° |
| 2026-04-28 13:25 | 9.42434 | 123.38741 | 30846 ft | 483 kts | 313° |
| 2026-04-28 13:25 | 9.43978 | 123.37047 | 30702 ft | 483 kts | 313° |
| 2026-04-28 13:25 | 9.46996 | 123.33736 | 30390 ft | 481 kts | 314° |
| 2026-04-28 13:25 | 9.48496 | 123.32090 | 30228 ft | 480 kts | 314° |
| 2026-04-28 13:26 | 9.50757 | 123.29608 | 29589 ft | 479 kts | 314° |
| 2026-04-28 13:26 | 9.53021 | 123.27123 | 28699 ft | 479 kts | 314° |
| 2026-04-28 13:26 | 9.55990 | 123.23864 | 27747 ft | 469 kts | 314° |
| 2026-04-28 13:26 | 9.57478 | 123.22229 | 27209 ft | 466 kts | 314° |
| 2026-04-28 13:27 | 9.59661 | 123.19831 | 26462 ft | 460 kts | 314° |
| 2026-04-28 13:27 | 9.61791 | 123.17491 | 25754 ft | 454 kts | 314° |
| 2026-04-28 13:27 | 9.63925 | 123.15146 | 25011 ft | 449 kts | 314° |
| 2026-04-28 13:27 | 9.66037 | 123.12824 | 24261 ft | 445 kts | 314° |
| 2026-04-28 13:28 | 9.68132 | 123.10521 | 23502 ft | 442 kts | 314° |
| 2026-04-28 13:28 | 9.70205 | 123.08241 | 22736 ft | 436 kts | 314° |
| 2026-04-28 13:28 | 9.72244 | 123.05999 | 22017 ft | 429 kts | 314° |
| 2026-04-28 13:28 | 9.74257 | 123.03785 | 21252 ft | 424 kts | 314° |
| 2026-04-28 13:29 | 9.76203 | 123.01645 | 20560 ft | 418 kts | 314° |
| 2026-04-28 13:29 | 9.78361 | 122.99701 | 19850 ft | 411 kts | 327° |
| 2026-04-28 13:29 | 9.80865 | 122.98369 | 19140 ft | 404 kts | 341° |
| 2026-04-28 13:29 | 9.83565 | 122.97684 | 18438 ft | 398 kts | 352° |
| 2026-04-28 13:30 | 9.86291 | 122.97204 | 17714 ft | 394 kts | 352° |
| 2026-04-28 13:30 | 9.88936 | 122.96737 | 17039 ft | 388 kts | 352° |
| 2026-04-28 13:30 | 9.91576 | 122.96270 | 16375 ft | 382 kts | 352° |
| 2026-04-28 13:30 | 9.94161 | 122.95811 | 16048 ft | 370 kts | 352° |
| 2026-04-28 13:31 | 9.99272 | 122.94902 | 15753 ft | 375 kts | 352° |
| 2026-04-28 13:31 | 10.01852 | 122.94443 | 15190 ft | 378 kts | 352° |
| 2026-04-28 13:31 | 10.04468 | 122.93977 | 14282 ft | 385 kts | 352° |
| 2026-04-28 13:32 | 10.07118 | 122.93505 | 13467 ft | 385 kts | 351° |
| 2026-04-28 13:32 | 10.09754 | 122.93034 | 12683 ft | 381 kts | 351° |
| 2026-04-28 13:32 | 10.12353 | 122.92569 | 11899 ft | 377 kts | 351° |
| 2026-04-28 13:32 | 10.14918 | 122.92111 | 11157 ft | 373 kts | 351° |
| 2026-04-28 13:33 | 10.17436 | 122.91662 | 10445 ft | 369 kts | 351° |
| 2026-04-28 13:33 | 10.19950 | 122.91212 | 10156 ft | 353 kts | 351° |
| 2026-04-28 13:33 | 10.22275 | 122.90795 | 9987 ft | 335 kts | 351° |
| 2026-04-28 13:33 | 10.24515 | 122.90393 | 9839 ft | 318 kts | 352° |
| 2026-04-28 13:34 | 10.26645 | 122.90012 | 9647 ft | 304 kts | 352° |
| 2026-04-28 13:34 | 10.28713 | 122.89642 | 9200 ft | 300 kts | 352° |
| 2026-04-28 13:34 | 10.30761 | 122.89277 | 8721 ft | 298 kts | 352° |
| 2026-04-28 13:34 | 10.32796 | 122.88914 | 8244 ft | 296 kts | 352° |
| 2026-04-28 13:35 | 10.34818 | 122.88553 | 7785 ft | 293 kts | 352° |
| 2026-04-28 13:35 | 10.36797 | 122.88199 | 7344 ft | 291 kts | 352° |
| 2026-04-28 13:35 | 10.38783 | 122.87844 | 6900 ft | 289 kts | 352° |
| 2026-04-28 13:35 | 10.40754 | 122.87492 | 6462 ft | 287 kts | 352° |
| 2026-04-28 13:36 | 10.42720 | 122.87140 | 6005 ft | 284 kts | 352° |
| 2026-04-28 13:36 | 10.44662 | 122.86792 | 5558 ft | 282 kts | 352° |
| 2026-04-28 13:36 | 10.46301 | 122.86498 | 5171 ft | 281 kts | 352° |
| 2026-04-28 13:36 | 10.47952 | 122.86202 | 4775 ft | 280 kts | 353° |
| 2026-04-28 13:37 | 10.49874 | 122.86111 | 4310 ft | 275 kts | 11° |
| 2026-04-28 13:37 | 10.51658 | 122.86735 | 3849 ft | 270 kts | 31° |
| 2026-04-28 13:37 | 10.53263 | 122.87677 | 3465 ft | 266 kts | 30° |
| 2026-04-28 13:37 | 10.54857 | 122.88542 | 3348 ft | 252 kts | 31° |
| 2026-04-28 13:38 | 10.56343 | 122.89409 | 3256 ft | 239 kts | 32° |
| 2026-04-28 13:38 | 10.57754 | 122.90233 | 3159 ft | 228 kts | 32° |
| 2026-04-28 13:38 | 10.59080 | 122.91010 | 3076 ft | 213 kts | 32° |
| 2026-04-28 13:38 | 10.60277 | 122.91710 | 3028 ft | 181 kts | 32° |
| 2026-04-28 13:39 | 10.61258 | 122.92283 | 3003 ft | 146 kts | 33° |
| 2026-04-28 13:39 | 10.62069 | 122.92759 | 3012 ft | 130 kts | 33° |
| 2026-04-28 13:39 | 10.62845 | 122.93216 | 3013 ft | 128 kts | 33° |
| 2026-04-28 13:39 | 10.63613 | 122.93666 | 2938 ft | 126 kts | 33° |
| 2026-04-28 13:40 | 10.64378 | 122.94115 | 2803 ft | 128 kts | 33° |
| 2026-04-28 13:40 | 10.65146 | 122.94565 | 2645 ft | 126 kts | 32° |
| 2026-04-28 13:40 | 10.65902 | 122.95009 | 2493 ft | 126 kts | 33° |
| 2026-04-28 13:40 | 10.66651 | 122.95447 | 2340 ft | 125 kts | 32° |
| 2026-04-28 13:41 | 10.67411 | 122.95894 | 2179 ft | 125 kts | 32° |
| 2026-04-28 13:41 | 10.67656 | 122.96037 | 2125 ft | 125 kts | 32° |
| 2026-04-28 13:41 | 10.68663 | 122.96627 | 1918 ft | 124 kts | 33° |
| 2026-04-28 13:42 | 10.71145 | 122.98081 | 1394 ft | 123 kts | 32° |
| 2026-04-28 13:42 | 10.71883 | 122.98515 | 1240 ft | 121 kts | 32° |
| 2026-04-28 13:42 | 10.72625 | 122.98950 | 1083 ft | 125 kts | 31° |
| 2026-04-28 13:43 | 10.73378 | 122.99391 | 920 ft | 125 kts | 30° |
| 2026-04-28 13:43 | 10.74122 | 122.99833 | 763 ft | 126 kts | 30° |
| 2026-04-28 13:43 | 10.74909 | 123.00304 | 639 ft | 141 kts | 30° |
| 2026-04-28 13:43 | 10.75840 | 123.00842 | 427 ft | 164 kts | 30° |
| 2026-04-28 13:44 | 10.76837 | 123.01430 | 174 ft | 166 kts | 30° |
| 2026-04-28 13:44 | 10.77162 | 123.01622 | 136 ft | 152 kts | 30° |